createdAt,value
2018-05-12T00:02:19.422Z,95384.05
2018-05-12T00:04:47.694Z,95390.14
2018-05-12T00:07:16.082Z,95395.22
2018-05-12T00:09:44.642Z,95394.54
2018-05-12T00:12:13.228Z,95395.84
2018-05-12T00:14:41.744Z,95394.80
2018-05-12T00:17:09.894Z,95396.58
2018-05-12T00:19:38.284Z,95375.16
2018-05-12T00:22:06.635Z,95392.97
2018-05-12T00:24:35.031Z,95384.89
2018-05-12T00:27:03.708Z,95382.58
2018-05-12T00:29:31.979Z,95393.95
2018-05-12T00:32:00.286Z,95391.33
2018-05-12T00:34:28.632Z,95390.80
2018-05-12T00:36:57.030Z,95395.92
2018-05-12T00:39:25.387Z,95393.25
2018-05-12T00:41:53.594Z,95395.13
2018-05-12T00:44:22.168Z,95394.61
2018-05-12T00:46:50.613Z,95393.11
2018-05-12T00:49:19.129Z,95403.30
2018-05-12T00:51:47.595Z,95397.61
2018-05-12T00:54:16.267Z,95399.52
2018-05-12T00:56:44.713Z,95400.95
2018-05-12T00:59:13.228Z,95402.69
2018-05-12T01:01:41.910Z,95401.70
2018-05-12T01:04:10.304Z,95400.11
2018-05-12T01:06:38.577Z,95395.48
2018-05-12T01:09:06.987Z,95400.11
2018-05-12T01:11:35.553Z,95402.73
2018-05-12T01:14:04.117Z,95294.69
2018-05-12T01:16:32.763Z,95406.14
2018-05-12T01:19:01.072Z,95406.15
2018-05-12T01:21:29.518Z,95408.06
2018-05-12T01:23:57.748Z,95403.52
2018-05-12T01:26:25.966Z,95407.79
2018-05-12T01:28:54.401Z,95406.80
2018-05-12T01:31:22.761Z,95405.36
2018-05-12T01:33:51.042Z,95404.96
2018-05-12T01:36:19.718Z,95409.29
2018-05-12T01:38:48.304Z,95399.64
2018-05-12T01:41:16.701Z,95387.41
2018-05-12T01:43:45.163Z,95394.11
2018-05-12T01:46:13.847Z,95386.92
2018-05-12T01:48:42.033Z,95392.03
2018-05-12T01:51:10.490Z,95396.70
2018-05-12T01:53:38.677Z,95390.44
2018-05-12T01:56:07.047Z,95386.12
2018-05-12T01:58:35.288Z,95402.23
2018-05-12T02:01:03.716Z,95403.97
2018-05-12T02:03:32.183Z,95405.30
2018-05-12T02:06:00.485Z,95406.66
2018-05-12T02:08:28.931Z,95405.37
2018-05-12T02:10:57.125Z,95405.84
2018-05-12T02:13:25.595Z,95405.72
2018-05-12T02:15:54.269Z,95407.23
2018-05-12T02:18:22.671Z,95400.30
2018-05-12T02:20:51.173Z,95403.81
2018-05-12T02:23:19.722Z,95398.63
2018-05-12T02:25:47.907Z,95395.25
2018-05-12T02:28:16.469Z,95390.42
2018-05-12T02:30:44.940Z,95399.91
2018-05-12T02:33:13.415Z,95410.98
2018-05-12T02:35:41.939Z,95403.85
2018-05-12T02:38:11.121Z,95396.98
2018-05-12T02:40:39.558Z,95396.13
2018-05-12T02:43:07.882Z,95402.03
2018-05-12T02:45:36.445Z,95407.19
2018-05-12T02:48:04.738Z,95413.09
2018-05-12T02:50:33.312Z,95415.61
2018-05-12T02:53:01.781Z,95407.09
2018-05-12T02:55:30.086Z,95411.84
2018-05-12T02:57:58.541Z,95408.80
2018-05-12T03:00:26.961Z,95400.27
2018-05-12T03:02:55.314Z,95389.49
2018-05-12T03:05:23.779Z,95389.33
2018-05-12T03:07:52.178Z,95387.97
2018-05-12T03:10:20.751Z,95395.43
2018-05-12T03:12:48.945Z,95414.52
2018-05-12T03:15:17.401Z,95422.30
2018-05-12T03:17:45.743Z,95419.73
2018-05-12T03:20:14.053Z,95425.20
2018-05-12T03:22:42.363Z,95433.34
2018-05-12T03:25:10.822Z,95441.36
2018-05-12T03:27:39.809Z,95449.84
2018-05-12T03:30:08.269Z,95456.28
2018-05-12T03:32:37.070Z,95455.19
2018-05-12T03:35:05.441Z,95460.66
2018-05-12T03:37:33.818Z,95451.20
2018-05-12T03:40:02.298Z,95446.25
2018-05-12T03:42:30.704Z,95453.04
2018-05-12T03:44:59.369Z,95451.31
2018-05-12T03:47:28.055Z,95453.24
2018-05-12T03:49:56.598Z,95462.66
2018-05-12T03:52:25.109Z,95466.95
2018-05-12T03:54:53.496Z,95469.71
2018-05-12T03:57:21.782Z,95471.17
2018-05-12T03:59:50.106Z,95476.83
2018-05-12T04:02:18.439Z,95472.94
2018-05-12T04:04:59.747Z,95481.86
2018-05-12T04:07:40.939Z,95443.99
2018-05-12T04:10:18.099Z,95468.70
2018-05-12T04:12:46.339Z,95464.91
2018-05-12T04:15:14.913Z,95461.63
2018-05-12T04:17:44.333Z,95459.75
2018-05-12T04:20:12.807Z,95456.97
2018-05-12T04:22:41.293Z,95456.39
2018-05-12T04:25:09.769Z,95463.48
2018-05-12T04:27:38.107Z,95447.80
2018-05-12T04:30:06.826Z,95460.11
2018-05-12T04:32:35.405Z,95459.61
2018-05-12T04:35:04.243Z,95452.38
2018-05-12T04:37:32.610Z,95450.17
2018-05-12T04:40:00.961Z,95449.85
2018-05-12T04:42:29.358Z,95455.10
2018-05-12T04:44:58.113Z,95462.51
2018-05-12T04:47:26.698Z,95456.45
2018-05-12T04:49:55.381Z,95454.65
2018-05-12T04:52:23.421Z,95455.48
2018-05-12T04:54:51.737Z,95456.59
2018-05-12T04:57:19.743Z,95461.03
2018-05-12T04:59:47.711Z,95461.91
2018-05-12T05:02:15.602Z,95463.97
2018-05-12T05:04:43.571Z,95462.39
2018-05-12T05:07:11.573Z,95464.09
2018-05-12T05:09:39.586Z,95462.43
2018-05-12T05:12:07.696Z,95465.58
2018-05-12T05:14:35.617Z,95457.63
2018-05-12T05:17:03.670Z,95459.24
2018-05-12T05:19:31.796Z,95458.29
2018-05-12T05:21:59.934Z,95448.72
2018-05-12T05:24:27.964Z,95455.79
2018-05-12T05:26:55.994Z,95416.20
2018-05-12T05:29:23.954Z,95448.39
2018-05-12T05:31:51.982Z,95451.64
2018-05-12T05:34:19.916Z,95452.73
2018-05-12T05:36:48.263Z,95458.38
2018-05-12T05:39:16.199Z,95458.83
2018-05-12T05:41:44.304Z,95432.71
2018-05-12T05:44:12.274Z,95450.65
2018-05-12T05:46:40.238Z,95448.02
2018-05-12T05:49:08.243Z,95440.29
2018-05-12T05:51:36.251Z,95443.82
2018-05-12T05:54:04.183Z,95439.84
2018-05-12T05:56:32.197Z,95430.27
2018-05-12T05:59:00.105Z,95441.52
2018-05-12T06:01:28.134Z,95437.09
2018-05-12T06:03:56.144Z,95428.94
2018-05-12T06:06:24.663Z,95428.97
2018-05-12T06:08:52.689Z,95435.36
2018-05-12T06:11:20.741Z,95418.11
2018-05-12T06:13:48.798Z,95414.63
2018-05-12T06:16:16.792Z,95419.01
2018-05-12T06:18:44.783Z,95418.05
2018-05-12T06:21:12.787Z,95413.11
2018-05-12T06:23:41.199Z,95413.18
2018-05-12T06:26:09.155Z,95414.52
2018-05-12T06:28:37.250Z,95407.86
2018-05-12T06:31:05.617Z,95403.20
2018-05-12T06:33:33.685Z,95400.00
2018-05-12T06:36:01.809Z,95401.45
2018-05-12T06:38:30.317Z,95397.48
2018-05-12T06:40:58.254Z,95396.98
2018-05-12T06:43:26.293Z,95391.84
2018-05-12T06:45:54.315Z,95394.55
2018-05-12T06:48:22.385Z,95388.97
2018-05-12T06:50:50.424Z,95391.30
2018-05-12T06:53:18.477Z,95385.92
2018-05-12T06:55:46.528Z,95386.75
2018-05-12T06:58:14.569Z,95382.58
2018-05-12T07:00:42.802Z,95389.48
2018-05-12T07:03:10.942Z,95378.23
2018-05-12T07:05:39.004Z,95373.48
2018-05-12T07:08:06.990Z,95361.11
2018-05-12T07:10:35.138Z,95373.76
2018-05-12T07:13:03.126Z,95370.61
2018-05-12T07:15:31.254Z,95369.98
2018-05-12T07:17:59.385Z,95367.25
2018-05-12T07:20:27.450Z,95354.95
2018-05-12T07:22:55.498Z,95351.66
2018-05-12T07:25:23.545Z,95347.16
2018-05-12T07:27:51.576Z,95341.52
2018-05-12T07:30:19.583Z,95338.62
2018-05-12T07:32:47.598Z,95336.94
2018-05-12T07:35:15.642Z,95341.70
2018-05-12T07:37:43.635Z,95337.64
2018-05-12T07:40:12.097Z,95321.69
2018-05-12T07:42:40.131Z,95330.70
2018-05-12T07:45:08.126Z,95321.02
2018-05-12T07:47:36.114Z,95318.66
2018-05-12T07:50:04.197Z,95326.01
2018-05-12T07:52:32.153Z,95319.22
2018-05-12T07:55:00.191Z,95318.34
2018-05-12T07:57:28.204Z,95309.05
2018-05-12T07:59:56.231Z,95306.25
2018-05-12T08:02:24.352Z,95302.50
2018-05-12T08:04:52.348Z,95310.47
2018-05-12T08:07:20.338Z,95307.38
2018-05-12T08:09:48.336Z,95296.55
2018-05-12T08:12:16.454Z,95302.98
2018-05-12T08:14:44.461Z,95291.56
2018-05-12T08:17:12.437Z,95291.14
2018-05-12T08:19:40.443Z,95287.88
2018-05-12T08:22:08.488Z,95281.47
2018-05-12T08:24:36.511Z,95286.86
2018-05-12T08:27:04.557Z,95282.57
2018-05-12T08:29:32.600Z,95281.71
2018-05-12T08:32:00.661Z,95272.91
2018-05-12T08:34:28.682Z,95269.00
2018-05-12T08:36:56.682Z,95274.16
2018-05-12T08:39:24.732Z,95268.92
2018-05-12T08:41:53.089Z,95264.46
2018-05-12T08:44:21.102Z,95264.55
2018-05-12T08:46:49.120Z,95257.41
2018-05-12T08:49:17.145Z,95254.09
2018-05-12T08:51:45.156Z,95246.95
2018-05-12T08:54:13.190Z,95248.80
2018-05-12T08:56:41.213Z,95247.41
2018-05-12T08:59:09.162Z,95246.07
2018-05-12T09:01:37.176Z,95238.72
2018-05-12T09:04:05.174Z,95237.50
2018-05-12T09:06:33.126Z,95237.75
2018-05-12T09:09:01.133Z,95235.42
2018-05-12T09:11:29.185Z,95231.50
2018-05-12T09:13:57.247Z,95233.20
2018-05-12T09:16:25.259Z,95236.89
2018-05-12T09:18:53.258Z,95222.17
2018-05-12T09:21:21.243Z,95218.08
2018-05-12T09:23:49.362Z,95224.66
2018-05-12T09:26:17.387Z,95216.99
2018-05-12T09:28:45.397Z,95217.20
2018-05-12T09:31:13.397Z,95201.98
2018-05-12T09:33:41.408Z,95211.49
2018-05-12T09:36:09.540Z,95201.57
2018-05-12T09:38:37.550Z,95200.77
2018-05-12T09:41:05.544Z,95194.50
2018-05-12T09:43:33.946Z,95196.58
2018-05-12T09:46:01.931Z,95188.78
2018-05-12T09:48:29.983Z,95182.23
2018-05-12T09:50:57.967Z,95182.38
2018-05-12T09:53:25.995Z,95171.34
2018-05-12T09:55:54.027Z,95175.33
2018-05-12T09:58:21.978Z,95174.89
2018-05-12T10:00:49.945Z,95163.63
2018-05-12T10:03:17.999Z,95164.98
2018-05-12T10:05:45.974Z,95167.24
2018-05-12T10:08:13.975Z,95147.82
2018-05-12T10:10:42.050Z,95171.74
2018-05-12T10:13:10.025Z,95171.32
2018-05-12T10:15:38.133Z,95167.22
2018-05-12T10:18:06.182Z,95157.67
2018-05-12T10:20:34.210Z,95155.42
2018-05-12T10:23:02.279Z,95147.38
2018-05-12T10:25:30.530Z,95148.78
2018-05-12T10:27:58.794Z,95147.37
2018-05-12T10:30:27.059Z,95140.24
2018-05-12T10:32:55.289Z,95139.02
2018-05-12T10:35:23.554Z,95139.27
2018-05-12T10:37:51.810Z,95138.25
2018-05-12T10:40:20.056Z,95138.64
2018-05-12T10:42:48.319Z,95138.31
2018-05-12T10:45:17.025Z,95142.53
2018-05-12T10:47:45.393Z,95137.30
2018-05-12T10:50:13.588Z,95132.83
2018-05-12T10:52:41.827Z,95125.23
2018-05-12T10:55:10.115Z,95124.08
2018-05-12T10:57:38.378Z,95117.39
2018-05-12T11:00:06.652Z,95111.88
2018-05-12T11:02:34.873Z,95106.55
2018-05-12T11:05:03.731Z,95102.53
2018-05-12T11:07:31.798Z,95096.98
2018-05-12T11:09:59.897Z,95094.62
2018-05-12T11:12:27.951Z,95103.17
2018-05-12T11:14:56.220Z,95095.58
2018-05-12T11:17:24.258Z,95101.27
2018-05-12T11:19:52.362Z,95104.00
2018-05-12T11:22:20.552Z,95103.98
2018-05-12T11:24:48.528Z,95096.59
2018-05-12T11:27:16.580Z,95094.86
2018-05-12T11:29:44.583Z,95092.48
2018-05-12T11:32:12.557Z,95066.98
2018-05-12T11:34:40.603Z,95085.59
2018-05-12T11:37:08.585Z,95087.23
2018-05-12T11:39:36.545Z,95082.73
2018-05-12T11:42:04.550Z,95081.93
2018-05-12T11:44:32.534Z,95071.81
2018-05-12T11:47:00.900Z,95076.52
2018-05-12T11:49:28.907Z,95069.39
2018-05-12T11:51:56.925Z,95072.06
2018-05-12T11:54:24.912Z,95064.06
2018-05-12T11:56:52.845Z,95055.15
2018-05-12T11:59:20.764Z,95060.87
2018-05-12T12:01:48.784Z,95060.13
2018-05-12T12:04:16.881Z,95057.42
2018-05-12T12:06:44.844Z,95053.41
2018-05-12T12:09:12.945Z,95068.48
2018-05-12T12:11:40.932Z,95064.58
2018-05-12T12:14:08.969Z,95057.02
2018-05-12T12:16:37.049Z,95052.91
2018-05-12T12:19:05.053Z,95050.69
2018-05-12T12:21:33.032Z,95045.49
2018-05-12T12:24:01.030Z,95043.33
2018-05-12T12:26:29.055Z,95031.52
2018-05-12T12:28:57.051Z,95028.41
2018-05-12T12:31:25.085Z,95029.63
2018-05-12T12:33:53.117Z,95025.77
2018-05-12T12:36:21.250Z,95018.52
2018-05-12T12:38:49.392Z,95012.16
2018-05-12T12:41:18.368Z,95006.52
2018-05-12T12:43:46.772Z,94998.73
2018-05-12T12:46:15.661Z,95006.98
2018-05-12T12:48:44.376Z,94991.01
2018-05-12T12:51:12.805Z,94991.28
2018-05-12T12:53:40.948Z,94989.25
2018-05-12T12:56:09.017Z,94985.97
2018-05-12T12:58:37.069Z,94982.55
2018-05-12T13:01:05.099Z,94981.58
2018-05-12T13:03:33.197Z,94973.31
2018-05-12T13:06:01.172Z,94976.19
2018-05-12T13:08:29.186Z,94971.07
2018-05-12T13:10:57.129Z,94958.26
2018-05-12T13:13:25.178Z,94967.41
2018-05-12T13:15:53.174Z,94961.86
2018-05-12T13:18:21.078Z,94958.73
2018-05-12T13:20:49.122Z,94951.94
2018-05-12T13:23:17.111Z,94950.53
2018-05-12T13:25:45.250Z,94946.43
2018-05-12T13:28:13.257Z,94941.44
2018-05-12T13:30:41.279Z,94937.84
2018-05-12T13:33:09.247Z,94935.30
2018-05-12T13:35:37.508Z,94931.33
2018-05-12T13:38:05.622Z,94903.75
2018-05-12T13:40:33.606Z,94922.09
2018-05-12T13:43:01.730Z,94918.78
2018-05-12T13:45:29.810Z,94915.25
2018-05-12T13:47:57.835Z,94909.60
2018-05-12T13:50:26.420Z,94898.73
2018-05-12T13:52:54.422Z,94905.33
2018-05-12T13:55:22.400Z,94899.90
2018-05-12T13:57:50.412Z,94894.23
2018-05-12T14:00:18.437Z,94897.38
2018-05-12T14:02:46.453Z,94894.02
2018-05-12T14:05:14.479Z,94893.66
2018-05-12T14:07:42.853Z,94887.66
2018-05-12T14:10:10.874Z,94880.45
2018-05-12T14:12:38.803Z,94875.72
2018-05-12T14:15:06.865Z,94874.20
2018-05-12T14:17:35.339Z,94877.52
2018-05-12T14:20:03.759Z,94869.91
2018-05-12T14:22:32.259Z,94872.36
2018-05-12T14:25:00.775Z,94868.97
2018-05-12T14:27:28.921Z,94883.27
2018-05-12T14:29:56.928Z,94878.61
2018-05-12T14:32:25.060Z,94878.30
2018-05-12T14:34:53.127Z,94876.80
2018-05-12T14:37:21.214Z,94882.67
2018-05-12T14:39:49.281Z,94880.32
2018-05-12T14:42:17.318Z,94879.87
2018-05-12T14:44:45.356Z,94879.73
2018-05-12T14:47:13.426Z,94879.89
2018-05-12T14:49:41.440Z,94874.87
2018-05-12T14:52:09.975Z,94881.70
2018-05-12T14:54:38.017Z,94876.72
2018-05-12T14:57:06.049Z,94880.80
2018-05-12T14:59:34.114Z,94874.72
2018-05-12T15:02:02.066Z,94878.60
2018-05-12T15:04:30.046Z,94882.21
2018-05-12T15:06:58.089Z,94883.12
2018-05-12T15:09:26.046Z,94898.10
2018-05-12T15:11:54.067Z,94898.73
2018-05-12T15:14:22.092Z,94900.63
2018-05-12T15:16:50.116Z,94896.41
2018-05-12T15:19:18.122Z,94893.63
2018-05-12T15:21:46.101Z,94892.55
2018-05-12T15:24:14.161Z,94887.30
2018-05-12T15:26:42.216Z,94890.22
2018-05-12T15:29:10.275Z,94886.80
2018-05-12T15:31:38.371Z,94884.08
2018-05-12T15:34:06.385Z,94881.45
2018-05-12T15:36:34.391Z,94891.05
2018-05-12T15:39:02.412Z,94897.26
2018-05-12T15:41:30.581Z,94883.67
2018-05-12T15:43:58.636Z,94905.47
2018-05-12T15:46:26.704Z,94907.04
2018-05-12T15:48:54.731Z,94907.09
2018-05-12T15:51:22.743Z,94907.18
2018-05-12T15:53:51.128Z,94904.69
2018-05-12T15:56:19.093Z,94901.05
2018-05-12T15:58:47.181Z,94904.89
2018-05-12T16:01:15.169Z,94909.80
2018-05-12T16:03:43.235Z,94915.34
2018-05-12T16:06:11.288Z,94920.39
2018-05-12T16:08:39.323Z,94922.02
2018-05-12T16:11:07.310Z,94934.37
2018-05-12T16:13:35.320Z,94944.49
2018-05-12T16:16:03.377Z,94945.97
2018-05-12T16:18:31.427Z,94957.63
2018-05-12T16:20:59.457Z,94963.05
2018-05-12T16:23:27.450Z,94961.48
2018-05-12T16:25:55.522Z,94963.38
2018-05-12T16:28:23.528Z,94973.86
2018-05-12T16:30:51.496Z,94977.38
2018-05-12T16:33:19.511Z,94982.87
2018-05-12T16:35:47.508Z,94991.13
2018-05-12T16:38:15.558Z,95002.32
2018-05-12T16:40:43.578Z,95004.22
2018-05-12T16:43:11.675Z,95013.55
2018-05-12T16:45:39.689Z,95021.35
2018-05-12T16:48:07.733Z,95029.34
2018-05-12T16:50:35.763Z,95025.75
2018-05-12T16:53:03.811Z,95031.31
2018-05-12T16:55:32.088Z,95040.05
2018-05-12T16:58:00.157Z,95040.41
2018-05-12T17:00:28.160Z,95046.63
2018-05-12T17:02:56.106Z,95052.98
2018-05-12T17:05:24.120Z,95054.76
2018-05-12T17:07:52.146Z,95062.86
2018-05-12T17:10:20.193Z,95066.44
2018-05-12T17:12:48.203Z,95075.24
2018-05-12T17:15:16.275Z,95064.08
2018-05-12T17:17:44.336Z,95068.65
2018-05-12T17:20:12.411Z,95067.27
2018-05-12T17:22:40.519Z,95069.15
2018-05-12T17:25:08.584Z,95065.66
2018-05-12T17:27:36.622Z,95073.00
2018-05-12T17:30:04.710Z,95078.23
2018-05-12T17:32:32.922Z,95077.26
2018-05-12T17:35:00.982Z,95090.95
2018-05-12T17:37:29.096Z,95090.64
2018-05-12T17:39:57.186Z,95090.56
2018-05-12T17:42:25.283Z,95096.08
2018-05-12T17:44:53.445Z,95089.03
2018-05-12T17:47:21.588Z,95028.77
2018-05-12T17:49:49.583Z,95077.55
2018-05-12T17:52:17.554Z,95075.05
2018-05-12T17:54:45.625Z,95072.46
2018-05-12T17:57:14.202Z,95079.32
2018-05-12T17:59:42.317Z,95076.09
2018-05-12T18:02:10.327Z,95077.32
2018-05-12T18:04:38.363Z,95076.73
2018-05-12T18:07:06.382Z,95073.55
2018-05-12T18:09:34.494Z,95079.47
2018-05-12T18:12:02.630Z,95081.81
2018-05-12T18:14:30.710Z,95092.76
2018-05-12T18:16:58.773Z,95107.30
2018-05-12T18:19:26.767Z,95110.70
2018-05-12T18:21:54.786Z,95115.05
2018-05-12T18:24:22.858Z,95134.06
2018-05-12T18:26:50.862Z,95146.17
2018-05-12T18:29:18.923Z,95158.20
2018-05-12T18:31:46.961Z,95166.56
2018-05-12T18:34:15.115Z,95179.95
2018-05-12T18:36:43.133Z,95186.21
2018-05-12T18:39:11.142Z,95194.72
2018-05-12T18:41:39.247Z,95196.77
2018-05-12T18:44:07.292Z,95200.55
2018-05-12T18:46:35.291Z,95197.60
2018-05-12T18:49:03.315Z,95207.41
2018-05-12T18:51:31.348Z,95214.47
2018-05-12T18:53:59.341Z,95212.23
2018-05-12T18:56:27.355Z,95219.94
2018-05-12T18:58:55.918Z,95225.30
2018-05-12T19:01:23.971Z,95219.90
2018-05-12T19:03:51.968Z,95222.63
2018-05-12T19:06:19.957Z,95222.83
2018-05-12T19:08:48.017Z,95222.53
2018-05-12T19:11:16.010Z,95216.98
2018-05-12T19:13:44.063Z,95210.54
2018-05-12T19:16:12.083Z,95212.85
2018-05-12T19:18:40.118Z,95217.47
2018-05-12T19:21:08.111Z,95207.70
2018-05-12T19:23:36.184Z,95209.54
2018-05-12T19:26:04.222Z,95208.30
2018-05-12T19:28:32.287Z,95215.38
2018-05-12T19:31:00.342Z,95211.86
2018-05-12T19:33:28.383Z,95202.23
2018-05-12T19:35:56.427Z,95198.77
2018-05-12T19:38:24.456Z,95197.30
2018-05-12T19:40:52.483Z,95188.48
2018-05-12T19:43:20.528Z,95188.98
2018-05-12T19:45:48.553Z,95184.84
2018-05-12T19:48:16.595Z,95190.51
2018-05-12T19:50:44.628Z,95193.69
2018-05-12T19:53:12.613Z,95200.01
2018-05-12T19:55:40.655Z,95201.58
2018-05-12T19:58:08.696Z,95202.05
2018-05-12T20:00:36.868Z,95204.95
2018-05-12T20:03:04.909Z,95206.94
2018-05-12T20:05:32.897Z,95207.86
2018-05-12T20:08:00.971Z,95210.30
2018-05-12T20:10:28.970Z,95216.23
2018-05-12T20:12:57.008Z,95209.34
2018-05-12T20:15:25.099Z,95207.75
2018-05-12T20:17:53.079Z,95209.69
2018-05-12T20:20:21.243Z,95201.73
2018-05-12T20:22:49.309Z,95208.09
2018-05-12T20:25:17.281Z,95212.07
2018-05-12T20:27:45.277Z,95207.09
2018-05-12T20:30:13.373Z,95202.38
2018-05-12T20:32:41.456Z,95198.92
2018-05-12T20:35:09.579Z,95199.00
2018-05-12T20:37:37.946Z,95197.36
2018-05-12T20:40:06.018Z,95202.30
2018-05-12T20:42:34.102Z,95204.38
2018-05-12T20:45:02.143Z,95204.00
2018-05-12T20:47:30.156Z,95196.48
2018-05-12T20:49:58.191Z,95192.76
2018-05-12T20:52:26.190Z,95195.77
2018-05-12T20:54:54.203Z,95186.27
2018-05-12T20:57:22.219Z,95190.43
2018-05-12T20:59:50.230Z,95194.44
2018-05-12T21:02:18.422Z,95190.84
2018-05-12T21:04:46.396Z,95197.71
2018-05-12T21:07:14.428Z,95193.73
2018-05-12T21:09:42.606Z,95186.08
2018-05-12T21:12:10.600Z,95187.84
2018-05-12T21:14:38.619Z,95186.87
2018-05-12T21:17:06.666Z,95190.11
2018-05-12T21:19:34.779Z,95194.22
2018-05-12T21:22:02.821Z,95192.13
2018-05-12T21:24:30.860Z,95188.96
2018-05-12T21:26:58.957Z,95182.47
2018-05-12T21:29:27.068Z,95185.61
2018-05-12T21:31:55.114Z,95185.11
2018-05-12T21:34:23.198Z,95188.46
2018-05-12T21:36:51.175Z,95188.30
2018-05-12T21:39:19.208Z,95183.47
2018-05-12T21:41:47.278Z,95181.36
2018-05-12T21:44:15.407Z,95191.63
2018-05-12T21:46:43.370Z,95184.83
2018-05-12T21:49:11.395Z,95185.48
2018-05-12T21:51:39.414Z,95187.79
2018-05-12T21:54:07.335Z,95189.18
2018-05-12T21:56:35.364Z,95189.84
2018-05-12T21:59:03.448Z,95186.53
2018-05-12T22:01:31.427Z,95182.70
2018-05-12T22:03:59.675Z,95173.58
2018-05-12T22:06:27.695Z,95182.93
2018-05-12T22:08:55.760Z,95177.20
2018-05-12T22:11:23.743Z,95183.63
2018-05-12T22:13:51.702Z,95181.06
2018-05-12T22:16:19.695Z,95184.34
2018-05-12T22:18:47.723Z,95184.91
2018-05-12T22:21:15.627Z,95181.92
2018-05-12T22:23:43.585Z,95181.58
2018-05-12T22:26:11.603Z,95177.17
2018-05-12T22:28:39.579Z,95172.09
2018-05-12T22:31:07.597Z,95173.52
2018-05-12T22:33:35.576Z,95170.12
2018-05-12T22:36:03.587Z,95175.62
2018-05-12T22:38:31.591Z,95174.16
2018-05-12T22:40:59.608Z,95174.19
2018-05-12T22:43:27.621Z,95176.22
2018-05-12T22:45:55.634Z,95175.77
2018-05-12T22:48:23.598Z,95171.77
2018-05-12T22:50:51.650Z,95181.86
2018-05-12T22:53:19.726Z,95182.18
2018-05-12T22:55:47.734Z,95187.98
2018-05-12T22:58:15.732Z,95184.59
2018-05-12T23:00:43.785Z,95186.41
2018-05-12T23:03:11.779Z,95192.90
2018-05-12T23:05:40.022Z,95191.02
2018-05-12T23:08:08.084Z,95193.92
2018-05-12T23:10:36.050Z,95187.95
2018-05-12T23:13:04.086Z,95192.02
2018-05-12T23:15:32.134Z,95190.48
2018-05-12T23:18:00.153Z,95190.77
2018-05-12T23:20:28.194Z,95190.64
2018-05-12T23:22:56.220Z,95195.87
2018-05-12T23:25:24.285Z,95192.24
2018-05-12T23:27:52.277Z,95189.24
2018-05-12T23:30:20.302Z,95183.25
2018-05-12T23:32:48.451Z,95178.13
2018-05-12T23:35:16.457Z,95178.86
2018-05-12T23:37:44.459Z,95172.38
2018-05-12T23:40:12.435Z,95174.61
2018-05-12T23:42:40.502Z,95170.91
2018-05-12T23:45:08.567Z,95172.48
2018-05-12T23:47:36.577Z,95172.09
2018-05-12T23:50:04.587Z,95167.29
2018-05-12T23:52:32.629Z,95154.37
2018-05-12T23:55:00.638Z,95158.38
2018-05-12T23:57:28.666Z,95158.12
2018-05-12T23:59:56.774Z,95151.23
